トロンハイム の空港の天気 - METARとTAF

Trondheim / Vaernes ( ENVA / TRD ) - ノルウェー ヌール・トロンデラーグ県、Stjordal
飛行場実況気象(Metar)
観測時間02/17 15:50 CET (02/17 14:50 UTC)
風向・風速東南東 3m/s
視程10km以上
天気現象
全天の4割程度の雲 雲底高度 1100m
全天の8割程度の雲 雲底高度 1430m
気温4℃
湿度60%
気圧1013hPa
METARENVA 171450Z 11005KT 9999 SCT036 BKN047 04/M03 Q1013 NOSIG RMK WIND 670FT 16010KT
過去の天気等 Google飛行場航空写真 Wunderground天気予報

過去48時間のMETAR

飛行場予報(TAF)
発表時間: -
TAF ENVA 1712/1812 10008KT 9999 FEW040 BKN100